Time,TemperatureF,DewpointF,PressureIn,WindDirection,WindDirectionDegrees,WindSpeedMPH,WindSpeedGustMPH,Humidity,HourlyPrecipIn,Conditions,Clouds,dailyrainin,SoftwareType,DateUTC
2015-04-24 00:03:00,59.0,53.2,29.59,NNE,22,0.0,0.0,81,0.00,,---,0.00,VWS V14.00,2015-04-24 07:03:00,
2015-04-24 00:08:00,58.8,53.0,29.59,NNE,22,2.2,2.5,81,0.00,,---,0.00,VWS V14.00,2015-04-24 07:08:00,
2015-04-24 00:13:00,58.6,52.8,29.62,NNE,22,1.6,1.6,81,0.00,,---,0.00,VWS V14.00,2015-04-24 07:13:00,
2015-04-24 00:18:00,58.6,52.8,29.62,NNE,22,1.3,1.3,81,0.00,,---,0.00,VWS V14.00,2015-04-24 07:18:00,
2015-04-24 00:23:00,58.5,52.7,29.62,SW,225,3.1,3.1,81,0.00,,---,0.00,VWS V14.00,2015-04-24 07:23:00,
2015-04-24 00:28:00,58.6,52.8,29.62,WSW,248,1.1,2.0,81,0.00,,---,0.00,VWS V14.00,2015-04-24 07:28:00,
2015-04-24 00:33:00,58.5,53.0,29.62,NNW,338,2.9,2.9,82,0.00,,---,0.00,VWS V14.00,2015-04-24 07:33:00,
2015-04-24 00:39:00,58.5,53.0,29.62,WNW,292,0.0,1.1,82,0.00,,---,0.00,VWS V14.00,2015-04-24 07:39:00,
2015-04-24 00:44:00,58.5,53.0,29.62,NW,315,0.0,2.9,82,0.00,,---,0.00,VWS V14.00,2015-04-24 07:44:00,
2015-04-24 00:49:00,58.5,53.3,29.62,West,270,0.0,0.0,83,0.00,,---,0.00,VWS V14.00,2015-04-24 07:49:00,
2015-04-24 00:54:00,58.5,53.3,29.62,West,270,0.0,0.0,83,0.00,,---,0.00,VWS V14.00,2015-04-24 07:54:00,
2015-04-24 00:59:00,58.5,53.0,29.62,West,270,1.6,2.2,82,0.00,,---,0.00,VWS V14.00,2015-04-24 07:59:00,
2015-04-24 01:04:00,58.5,53.0,29.62,NW,315,2.5,2.7,82,0.00,,---,0.00,VWS V14.00,2015-04-24 08:04:00,
2015-04-24 01:09:00,58.5,53.3,29.62,NW,315,1.6,2.7,83,0.00,,---,0.00,VWS V14.00,2015-04-24 08:09:00,
2015-04-24 01:14:00,58.5,53.3,29.62,NNW,338,4.0,5.4,83,0.00,,---,0.00,VWS V14.00,2015-04-24 08:14:00,
2015-04-24 01:20:00,58.3,53.2,29.62,North,0,2.9,3.4,83,0.00,,---,0.00,VWS V14.00,2015-04-24 08:20:00,
2015-04-24 01:25:00,58.1,53.0,29.62,North,0,2.5,2.7,83,0.00,,---,0.00,VWS V14.00,2015-04-24 08:25:00,
2015-04-24 01:30:00,57.9,52.5,29.62,North,0,3.6,3.6,82,0.00,,---,0.00,VWS V14.00,2015-04-24 08:30:00,
2015-04-24 01:35:00,57.6,51.8,29.62,North,0,3.1,3.6,81,0.00,,---,0.00,VWS V14.00,2015-04-24 08:35:00,
2015-04-24 01:40:00,57.6,51.5,29.62,NNW,338,3.1,3.1,80,0.00,,---,0.00,VWS V14.00,2015-04-24 08:40:00,
2015-04-24 01:45:00,57.2,50.8,29.62,NNW,338,2.5,3.8,79,0.00,,---,0.00,VWS V14.00,2015-04-24 08:45:00,
2015-04-24 01:50:00,57.0,50.6,29.62,NNW,338,2.0,2.7,79,0.00,,---,0.00,VWS V14.00,2015-04-24 08:50:00,
2015-04-24 01:55:00,56.7,49.9,29.62,NNW,338,2.2,2.9,78,0.00,,---,0.00,VWS V14.00,2015-04-24 08:55:00,
2015-04-24 02:00:00,56.3,49.5,29.62,NW,315,3.4,4.9,78,0.00,,---,0.00,VWS V14.00,2015-04-24 09:00:00,
2015-04-24 02:05:00,56.3,49.5,29.62,WNW,292,2.9,3.1,78,0.00,,---,0.00,VWS V14.00,2015-04-24 09:05:00,
2015-04-24 02:10:00,55.9,48.8,29.62,NW,315,2.5,2.7,77,0.00,,---,0.00,VWS V14.00,2015-04-24 09:10:00,
2015-04-24 02:15:00,55.8,49.0,29.62,NW,315,2.9,3.6,78,0.00,,---,0.00,VWS V14.00,2015-04-24 09:15:00,
2015-04-24 02:20:00,55.4,48.7,29.62,NW,315,2.9,2.9,78,0.00,,---,0.00,VWS V14.00,2015-04-24 09:20:00,
2015-04-24 02:25:00,55.2,48.5,29.65,West,270,3.1,3.1,78,0.00,,---,0.00,VWS V14.00,2015-04-24 09:25:00,
2015-04-24 02:30:00,55.2,48.2,29.65,SW,225,2.0,2.5,77,0.00,,---,0.00,VWS V14.00,2015-04-24 09:30:00,
2015-04-24 02:35:00,54.9,47.8,29.65,West,270,2.2,2.2,77,0.00,,---,0.00,VWS V14.00,2015-04-24 09:35:00,
2015-04-24 02:40:00,54.7,47.6,29.65,WSW,248,1.3,1.3,77,0.00,,---,0.00,VWS V14.00,2015-04-24 09:40:00,
2015-04-24 02:45:00,54.5,47.5,29.65,WSW,248,0.0,0.0,77,0.00,,---,0.00,VWS V14.00,2015-04-24 09:45:00,
2015-04-24 02:50:00,54.3,47.3,29.65,West,270,4.0,4.7,77,0.00,,---,0.00,VWS V14.00,2015-04-24 09:50:00,
2015-04-24 02:55:00,54.5,47.5,29.65,WNW,292,3.1,4.0,77,0.00,,---,0.00,VWS V14.00,2015-04-24 09:55:00,
2015-04-24 03:00:00,54.3,46.9,29.65,WNW,292,3.4,4.3,76,0.00,,---,0.00,VWS V14.00,2015-04-24 10:00:00,
2015-04-24 03:05:00,54.1,46.8,29.65,NW,315,3.1,3.4,76,0.00,,---,0.00,VWS V14.00,2015-04-24 10:05:00,
2015-04-24 03:10:00,54.0,46.6,29.65,NNW,338,2.9,3.6,76,0.00,,---,0.00,VWS V14.00,2015-04-24 10:10:00,
2015-04-24 03:15:00,54.0,46.2,29.65,NW,315,2.7,2.7,75,0.00,,---,0.00,VWS V14.00,2015-04-24 10:15:00,
2015-04-24 03:21:00,54.1,46.4,29.65,WNW,292,1.6,2.0,75,0.00,,---,0.00,VWS V14.00,2015-04-24 10:21:00,
2015-04-24 03:26:00,54.0,45.9,29.65,WNW,292,0.0,2.0,74,0.00,,---,0.00,VWS V14.00,2015-04-24 10:26:00,
2015-04-24 03:31:00,54.0,45.5,29.65,WNW,292,0.0,1.1,73,0.00,,---,0.00,VWS V14.00,2015-04-24 10:31:00,
2015-04-24 03:36:00,53.8,45.3,29.65,WNW,292,1.3,1.6,73,0.00,,---,0.00,VWS V14.00,2015-04-24 10:36:00,
2015-04-24 03:41:00,53.6,45.2,29.65,WNW,292,0.0,0.0,73,0.00,,---,0.00,VWS V14.00,2015-04-24 10:41:00,
2015-04-24 03:46:00,53.2,45.2,29.65,WNW,292,0.0,1.1,74,0.00,,---,0.00,VWS V14.00,2015-04-24 10:46:00,
2015-04-24 03:51:00,52.9,44.8,29.65,WNW,292,1.6,1.6,74,0.00,,---,0.00,VWS V14.00,2015-04-24 10:51:00,
2015-04-24 03:56:00,52.3,44.3,29.65,NNW,338,1.6,2.5,74,0.00,,---,0.00,VWS V14.00,2015-04-24 10:56:00,
2015-04-24 04:01:00,52.2,44.1,29.65,NNW,338,2.0,2.9,74,0.00,,---,0.00,VWS V14.00,2015-04-24 11:01:00,
2015-04-24 04:06:00,52.0,44.3,29.65,NW,315,0.9,2.0,75,0.00,,---,0.00,VWS V14.00,2015-04-24 11:06:00,
2015-04-24 04:11:00,51.8,44.1,29.65,NNW,338,1.6,2.0,75,0.00,,---,0.00,VWS V14.00,2015-04-24 11:11:00,
2015-04-24 04:16:00,51.8,44.5,29.65,NNW,338,1.1,1.6,76,0.00,,---,0.00,VWS V14.00,2015-04-24 11:16:00,
2015-04-24 04:21:00,51.6,44.7,29.65,NNW,338,1.6,2.7,77,0.00,,---,0.00,VWS V14.00,2015-04-24 11:21:00,
2015-04-24 04:26:00,51.6,44.3,29.65,NNW,338,2.0,2.0,76,0.00,,---,0.00,VWS V14.00,2015-04-24 11:26:00,
2015-04-24 04:31:00,51.4,44.1,29.65,NNW,338,0.0,1.3,76,0.00,,---,0.00,VWS V14.00,2015-04-24 11:31:00,
2015-04-24 04:36:00,51.3,44.0,29.65,NNW,338,0.0,0.9,76,0.00,,---,0.00,VWS V14.00,2015-04-24 11:36:00,
2015-04-24 04:41:00,51.1,44.1,29.65,NNW,338,0.0,0.0,77,0.00,,---,0.00,VWS V14.00,2015-04-24 11:41:00,
2015-04-24 04:46:00,50.9,44.0,29.65,NNW,338,1.6,2.7,77,0.00,,---,0.00,VWS V14.00,2015-04-24 11:46:00,
2015-04-24 04:51:00,50.7,43.8,29.65,NNW,338,0.0,0.0,77,0.00,,---,0.00,VWS V14.00,2015-04-24 11:51:00,
2015-04-24 04:56:00,50.5,43.6,29.65,NNW,338,0.0,0.9,77,0.00,,---,0.00,VWS V14.00,2015-04-24 11:56:00,
2015-04-24 05:01:00,50.4,43.8,29.65,West,270,0.0,2.7,78,0.00,,---,0.00,VWS V14.00,2015-04-24 12:01:00,
2015-04-24 05:06:00,50.2,43.6,29.65,West,270,0.0,1.6,78,0.00,,---,0.00,VWS V14.00,2015-04-24 12:06:00,
2015-04-24 05:11:00,50.2,43.6,29.65,WNW,292,2.7,2.7,78,0.00,,---,0.00,VWS V14.00,2015-04-24 12:11:00,
2015-04-24 05:16:00,50.0,43.4,29.65,WNW,292,0.0,1.6,78,0.00,,---,0.00,VWS V14.00,2015-04-24 12:16:00,
2015-04-24 05:21:00,49.6,42.7,29.65,WNW,292,0.0,1.1,77,0.00,,---,0.00,VWS V14.00,2015-04-24 12:21:00,
2015-04-24 05:26:00,49.5,42.6,29.65,WNW,292,2.2,2.2,77,0.00,,---,0.00,VWS V14.00,2015-04-24 12:26:00,
2015-04-24 05:31:00,49.3,42.7,29.65,WNW,292,1.6,2.0,78,0.00,,---,0.00,VWS V14.00,2015-04-24 12:31:00,
2015-04-24 05:36:00,49.1,42.5,29.65,WNW,292,1.3,1.6,78,0.00,,---,0.00,VWS V14.00,2015-04-24 12:36:00,
2015-04-24 05:41:00,48.9,42.4,29.68,North,0,1.3,2.9,78,0.00,,---,0.00,VWS V14.00,2015-04-24 12:41:00,
2015-04-24 05:46:00,48.9,42.7,29.68,North,0,0.0,0.0,79,0.00,,---,0.00,VWS V14.00,2015-04-24 12:46:00,
2015-04-24 05:52:00,48.9,42.7,29.68,North,0,2.0,2.2,79,0.00,,---,0.00,VWS V14.00,2015-04-24 12:52:00,
2015-04-24 05:57:00,48.7,42.5,29.68,North,0,0.0,0.0,79,0.00,,---,0.00,VWS V14.00,2015-04-24 12:57:00,
2015-04-24 06:02:00,48.6,42.3,29.68,North,0,1.6,1.6,79,0.00,,---,0.00,VWS V14.00,2015-04-24 13:02:00,
2015-04-24 06:07:00,48.4,42.2,29.68,North,0,1.3,1.3,79,0.00,,---,0.00,VWS V14.00,2015-04-24 13:07:00,
2015-04-24 06:12:00,48.2,42.0,29.68,North,0,0.0,0.0,79,0.00,,---,0.00,VWS V14.00,2015-04-24 13:12:00,
2015-04-24 06:17:00,48.2,42.0,29.68,ESE,112,0.0,1.6,79,0.00,,---,0.00,VWS V14.00,2015-04-24 13:17:00,
2015-04-24 06:22:00,48.0,42.2,29.68,East,90,0.0,0.0,80,0.00,,---,0.00,VWS V14.00,2015-04-24 13:22:00,
2015-04-24 06:28:00,48.0,42.5,29.68,East,90,0.0,0.0,81,0.00,,---,0.00,VWS V14.00,2015-04-24 13:28:00,
2015-04-24 06:33:00,48.0,42.5,29.68,East,90,0.0,0.0,81,0.00,,---,0.00,VWS V14.00,2015-04-24 13:33:00,
2015-04-24 06:38:00,48.0,42.5,29.68,East,90,0.0,0.0,81,0.00,,---,0.00,VWS V14.00,2015-04-24 13:38:00,
2015-04-24 06:43:00,48.0,42.5,29.68,East,90,0.0,0.0,81,0.00,,---,0.00,VWS V14.00,2015-04-24 13:43:00,
2015-04-24 06:48:00,48.0,42.8,29.68,East,90,0.0,0.0,82,0.00,,---,0.00,VWS V14.00,2015-04-24 13:48:00,
2015-04-24 06:53:00,48.2,43.0,29.68,East,90,0.0,0.0,82,0.00,,---,0.00,VWS V14.00,2015-04-24 13:53:00,
2015-04-24 06:58:00,48.4,43.2,29.71,East,90,0.0,0.0,82,0.00,,---,0.00,VWS V14.00,2015-04-24 13:58:00,
2015-04-24 07:03:00,48.7,43.5,29.71,East,90,0.0,0.0,82,0.00,,---,0.00,VWS V14.00,2015-04-24 14:03:00,
2015-04-24 07:08:00,48.9,43.7,29.71,East,90,0.0,0.0,82,0.00,,---,0.00,VWS V14.00,2015-04-24 14:08:00,
2015-04-24 07:13:00,49.3,44.3,29.71,ESE,112,2.5,2.5,83,0.00,,---,0.00,VWS V14.00,2015-04-24 14:13:00,
2015-04-24 07:18:00,50.0,45.0,29.71,SE,135,0.0,1.3,83,0.00,,---,0.00,VWS V14.00,2015-04-24 14:18:00,
2015-04-24 07:23:00,51.1,46.4,29.71,East,90,2.0,2.5,84,0.00,,---,0.00,VWS V14.00,2015-04-24 14:23:00,
2015-04-24 07:28:00,52.2,47.5,29.71,East,90,0.0,2.0,84,0.00,,---,0.00,VWS V14.00,2015-04-24 14:28:00,
2015-04-24 07:33:00,53.6,49.2,29.71,SE,135,2.7,3.6,85,0.00,,---,0.00,VWS V14.00,2015-04-24 14:33:00,
2015-04-24 07:38:00,55.0,50.6,29.71,SE,135,2.5,2.9,85,0.00,,---,0.00,VWS V14.00,2015-04-24 14:38:00,
2015-04-24 07:43:00,56.5,51.4,29.71,East,90,1.1,1.3,83,0.00,,---,0.00,VWS V14.00,2015-04-24 14:43:00,
2015-04-24 07:48:00,57.4,51.3,29.71,SE,135,3.1,3.8,80,0.00,,---,0.00,VWS V14.00,2015-04-24 14:48:00,
2015-04-24 07:53:00,58.8,51.3,29.71,SE,135,3.4,3.4,76,0.00,,---,0.00,VWS V14.00,2015-04-24 14:53:00,
2015-04-24 07:58:00,60.1,51.0,29.74,SE,135,4.0,4.0,72,0.00,,---,0.00,VWS V14.00,2015-04-24 14:58:00,
2015-04-24 08:03:00,61.0,50.8,29.74,SE,135,2.0,4.0,69,0.00,,---,0.00,VWS V14.00,2015-04-24 15:03:00,
2015-04-24 08:08:00,61.5,49.2,29.74,SE,135,3.8,5.6,64,0.00,,---,0.00,VWS V14.00,2015-04-24 15:08:00,
2015-04-24 08:13:00,61.9,49.2,29.71,East,90,2.9,3.6,63,0.00,,---,0.00,VWS V14.00,2015-04-24 15:13:00,
2015-04-24 08:18:00,62.6,48.1,29.71,SE,135,3.4,3.8,59,0.00,,---,0.00,VWS V14.00,2015-04-24 15:18:00,
2015-04-24 08:24:00,63.7,47.7,29.71,SE,135,2.5,5.4,56,0.00,,---,0.00,VWS V14.00,2015-04-24 15:24:00,
2015-04-24 08:29:00,63.9,47.4,29.71,SE,135,2.7,2.7,55,0.00,,---,0.00,VWS V14.00,2015-04-24 15:29:00,
2015-04-24 08:34:00,64.0,47.6,29.71,SE,135,3.1,3.8,55,0.00,,---,0.00,VWS V14.00,2015-04-24 15:34:00,
2015-04-24 08:39:00,63.1,46.7,29.71,ESE,112,1.3,2.7,55,0.00,,---,0.00,VWS V14.00,2015-04-24 15:39:00,
2015-04-24 08:44:00,62.8,45.9,29.71,ENE,68,2.7,2.9,54,0.00,,---,0.00,VWS V14.00,2015-04-24 15:44:00,
2015-04-24 08:49:00,62.6,46.2,29.71,East,90,0.9,2.5,55,0.00,,---,0.00,VWS V14.00,2015-04-24 15:49:00,
2015-04-24 08:54:00,62.1,46.2,29.71,East,90,2.7,3.6,56,0.00,,---,0.00,VWS V14.00,2015-04-24 15:54:00,
2015-04-24 08:59:00,61.3,46.0,29.71,SE,135,3.6,3.6,57,0.00,,---,0.00,VWS V14.00,2015-04-24 15:59:00,
2015-04-24 09:04:00,61.0,46.1,29.71,SSE,158,3.1,4.7,58,0.00,,---,0.00,VWS V14.00,2015-04-24 16:04:00,
2015-04-24 09:09:00,60.6,46.7,29.71,East,90,2.5,3.1,60,0.00,,---,0.00,VWS V14.00,2015-04-24 16:09:00,
2015-04-24 09:14:00,60.4,46.5,29.71,ESE,112,1.6,2.2,60,0.00,,---,0.00,VWS V14.00,2015-04-24 16:14:00,
2015-04-24 09:19:00,60.4,46.9,29.71,SE,135,2.7,2.7,61,0.00,,---,0.00,VWS V14.00,2015-04-24 16:19:00,
2015-04-24 09:24:00,60.4,47.4,29.71,SE,135,3.4,4.0,62,0.00,,---,0.00,VWS V14.00,2015-04-24 16:24:00,
2015-04-24 09:29:00,60.6,48.0,29.74,ESE,112,3.6,3.6,63,0.00,,---,0.00,VWS V14.00,2015-04-24 16:29:00,
2015-04-24 09:35:00,60.6,48.0,29.74,ESE,112,2.5,4.0,63,0.00,,---,0.00,VWS V14.00,2015-04-24 16:35:00,
2015-04-24 09:41:00,63.1,49.5,29.74,ESE,112,2.9,2.9,61,0.00,,---,0.00,VWS V14.00,2015-04-24 16:41:00,
2015-04-24 09:46:00,63.1,49.5,29.74,South,180,4.7,4.7,61,0.00,,---,0.00,VWS V14.00,2015-04-24 16:46:00,
2015-04-24 09:52:00,65.8,47.2,29.74,SSE,158,4.0,6.0,51,0.00,,---,0.00,VWS V14.00,2015-04-24 16:52:00,
2015-04-24 09:57:00,65.8,47.2,29.71,East,90,4.0,6.0,51,0.00,,---,0.00,VWS V14.00,2015-04-24 16:57:00,
2015-04-24 10:03:00,66.9,45.5,29.71,SE,135,2.5,5.8,46,0.00,,---,0.00,VWS V14.00,2015-04-24 17:03:00,
2015-04-24 10:09:00,67.3,45.2,29.71,SE,135,6.3,6.5,45,0.00,,---,0.00,VWS V14.00,2015-04-24 17:09:00,
2015-04-24 10:14:00,66.7,45.3,29.74,SSE,158,8.5,9.8,46,0.00,,---,0.00,VWS V14.00,2015-04-24 17:14:00,
2015-04-24 10:20:00,66.7,44.8,29.74,South,180,7.2,8.1,45,0.00,,---,0.00,VWS V14.00,2015-04-24 17:20:00,
2015-04-24 10:25:00,66.7,44.8,29.74,South,180,6.7,9.0,45,0.00,,---,0.00,VWS V14.00,2015-04-24 17:25:00,
2015-04-24 10:30:00,66.9,44.9,29.74,SE,135,7.4,7.4,45,0.00,,---,0.00,VWS V14.00,2015-04-24 17:30:00,
2015-04-24 10:35:00,66.6,45.2,29.74,South,180,0.0,5.4,46,0.00,,---,0.00,VWS V14.00,2015-04-24 17:35:00,
2015-04-24 10:40:00,66.7,45.3,29.74,South,180,3.1,3.1,46,0.00,,---,0.00,VWS V14.00,2015-04-24 17:40:00,
2015-04-24 10:45:00,66.2,43.7,29.74,East,90,3.8,4.7,44,0.00,,---,0.00,VWS V14.00,2015-04-24 17:45:00,
2015-04-24 10:51:00,66.2,44.2,29.74,SSE,158,7.2,7.2,45,0.00,,---,0.00,VWS V14.00,2015-04-24 17:51:00,
2015-04-24 10:56:00,66.7,44.8,29.74,SE,135,2.0,5.4,45,0.00,,---,0.00,VWS V14.00,2015-04-24 17:56:00,
2015-04-24 11:02:00,66.7,44.8,29.74,SSE,158,9.2,9.2,45,0.00,,---,0.00,VWS V14.00,2015-04-24 18:02:00,
2015-04-24 11:07:00,66.7,44.8,29.74,SE,135,4.3,8.7,45,0.00,,---,0.00,VWS V14.00,2015-04-24 18:07:00,
2015-04-24 11:13:00,67.1,45.1,29.74,South,180,5.6,5.8,45,0.00,,---,0.00,VWS V14.00,2015-04-24 18:13:00,
2015-04-24 11:18:00,67.1,45.1,29.74,SE,135,2.5,5.8,45,0.00,,---,0.00,VWS V14.00,2015-04-24 18:18:00,
2015-04-24 11:24:00,67.1,45.1,29.74,SSE,158,2.9,3.6,45,0.00,,---,0.00,VWS V14.00,2015-04-24 18:24:00,
2015-04-24 11:29:00,67.1,45.1,29.74,SE,135,6.0,9.4,45,0.00,,---,0.00,VWS V14.00,2015-04-24 18:29:00,
2015-04-24 11:35:00,67.1,45.1,29.74,East,90,3.6,5.4,45,0.00,,---,0.00,VWS V14.00,2015-04-24 18:35:00,
2015-04-24 11:41:00,67.1,45.1,29.71,South,180,6.0,6.9,45,0.00,,---,0.00,VWS V14.00,2015-04-24 18:41:00,
2015-04-24 11:46:00,69.3,44.6,29.71,SSE,158,4.9,4.9,41,0.00,,---,0.00,VWS V14.00,2015-04-24 18:46:00,
2015-04-24 11:51:00,69.1,43.8,29.71,East,90,2.5,2.9,40,0.00,,---,0.00,VWS V14.00,2015-04-24 18:51:00,
2015-04-24 11:56:00,70.2,44.7,29.71,SE,135,4.3,6.0,40,0.00,,---,0.00,VWS V14.00,2015-04-24 18:56:00,
2015-04-24 12:02:00,70.0,43.2,29.71,SSE,158,6.3,9.2,38,0.00,,---,0.00,VWS V14.00,2015-04-24 19:02:00,
2015-04-24 12:08:00,69.8,42.4,29.71,ESE,112,3.1,4.0,37,0.00,,---,0.00,VWS V14.00,2015-04-24 19:08:00,
2015-04-24 12:14:00,70.3,43.5,29.71,SE,135,2.5,5.4,38,0.00,,---,0.00,VWS V14.00,2015-04-24 19:14:00,
2015-04-24 12:20:00,71.1,43.5,29.71,SE,135,10.1,10.5,37,0.00,,---,0.00,VWS V14.00,2015-04-24 19:20:00,
2015-04-24 12:25:00,71.2,43.7,29.71,East,90,3.1,4.0,37,0.00,,---,0.00,VWS V14.00,2015-04-24 19:25:00,
2015-04-24 12:30:00,72.0,43.6,29.71,SE,135,4.0,6.3,36,0.00,,---,0.00,VWS V14.00,2015-04-24 19:30:00,
2015-04-24 12:35:00,71.8,41.9,29.71,SSE,158,7.8,10.5,34,0.00,,---,0.00,VWS V14.00,2015-04-24 19:35:00,
2015-04-24 12:41:00,71.4,42.4,29.71,ESE,112,8.7,9.2,35,0.00,,---,0.00,VWS V14.00,2015-04-24 19:41:00,
2015-04-24 12:46:00,70.5,41.6,29.71,East,90,2.5,3.4,35,0.00,,---,0.00,VWS V14.00,2015-04-24 19:46:00,
2015-04-24 12:52:00,70.9,42.6,29.71,SSE,158,6.0,7.8,36,0.00,,---,0.00,VWS V14.00,2015-04-24 19:52:00,
2015-04-24 12:57:00,70.9,41.9,29.71,SE,135,7.6,7.6,35,0.00,,---,0.00,VWS V14.00,2015-04-24 19:57:00,
2015-04-24 13:02:00,70.3,42.2,29.71,SE,135,5.6,5.6,36,0.00,,---,0.00,VWS V14.00,2015-04-24 20:02:00,
2015-04-24 13:07:00,70.5,42.3,29.71,SSE,158,7.4,11.4,36,0.00,,---,0.00,VWS V14.00,2015-04-24 20:07:00,
2015-04-24 13:12:00,71.4,42.4,29.71,SE,135,6.5,6.5,35,0.00,,---,0.00,VWS V14.00,2015-04-24 20:12:00,
2015-04-24 13:17:00,71.8,42.7,29.71,East,90,4.3,6.5,35,0.00,,---,0.00,VWS V14.00,2015-04-24 20:17:00,
2015-04-24 13:22:00,72.1,42.2,29.71,East,90,6.0,6.5,34,0.00,,---,0.00,VWS V14.00,2015-04-24 20:22:00,
2015-04-24 13:27:00,72.3,42.4,29.68,SE,135,8.1,8.1,34,0.00,,---,0.00,VWS V14.00,2015-04-24 20:27:00,
2015-04-24 13:32:00,72.1,42.2,29.68,SE,135,7.6,10.7,34,0.00,,---,0.00,VWS V14.00,2015-04-24 20:32:00,
2015-04-24 13:37:00,72.5,43.3,29.68,ESE,112,6.0,6.3,35,0.00,,---,0.00,VWS V14.00,2015-04-24 20:37:00,
2015-04-24 13:42:00,72.3,41.6,29.68,SE,135,6.3,8.5,33,0.00,,---,0.00,VWS V14.00,2015-04-24 20:42:00,
2015-04-24 13:47:00,72.5,41.8,29.68,East,90,3.1,9.6,33,0.00,,---,0.00,VWS V14.00,2015-04-24 20:47:00,
2015-04-24 13:53:00,72.7,42.7,29.68,SSE,158,6.9,6.9,34,0.00,,---,0.00,VWS V14.00,2015-04-24 20:53:00,
2015-04-24 13:58:00,72.3,42.4,29.68,East,90,3.6,8.1,34,0.00,,---,0.00,VWS V14.00,2015-04-24 20:58:00,
2015-04-24 14:03:00,72.5,42.6,29.68,East,90,4.3,5.8,34,0.00,,---,0.00,VWS V14.00,2015-04-24 21:03:00,
2015-04-24 14:08:00,72.1,41.5,29.68,SE,135,7.6,8.7,33,0.00,,---,0.00,VWS V14.00,2015-04-24 21:08:00,
2015-04-24 14:13:00,71.8,41.2,29.65,ENE,68,6.0,6.0,33,0.00,,---,0.00,VWS V14.00,2015-04-24 21:13:00,
2015-04-24 14:18:00,72.7,42.7,29.65,South,180,7.6,8.1,34,0.00,,---,0.00,VWS V14.00,2015-04-24 21:18:00,
2015-04-24 14:24:00,73.0,42.3,29.65,SE,135,6.5,10.1,33,0.00,,---,0.00,VWS V14.00,2015-04-24 21:24:00,
2015-04-24 14:29:00,72.7,42.0,29.65,SE,135,3.4,10.1,33,0.00,,---,0.00,VWS V14.00,2015-04-24 21:29:00,
2015-04-24 14:34:00,72.7,41.2,29.65,SE,135,4.3,5.4,32,0.00,,---,0.00,VWS V14.00,2015-04-24 21:34:00,
2015-04-24 14:39:00,72.3,40.8,29.65,SE,135,10.1,10.1,32,0.00,,---,0.00,VWS V14.00,2015-04-24 21:39:00,
2015-04-24 14:44:00,72.1,40.7,29.68,SE,135,6.9,10.7,32,0.00,,---,0.00,VWS V14.00,2015-04-24 21:44:00,
2015-04-24 14:49:00,72.7,42.0,29.68,SE,135,17.0,17.0,33,0.00,,---,0.00,VWS V14.00,2015-04-24 21:49:00,
2015-04-24 14:54:00,72.5,41.0,29.68,SSE,158,8.1,8.1,32,0.00,,---,0.00,VWS V14.00,2015-04-24 21:54:00,
2015-04-24 14:59:00,72.7,41.2,29.65,SE,135,2.9,10.1,32,0.00,,---,0.00,VWS V14.00,2015-04-24 21:59:00,
2015-04-24 15:04:00,73.0,41.5,29.65,SSE,158,10.1,12.8,32,0.00,,---,0.00,VWS V14.00,2015-04-24 22:04:00,
2015-04-24 15:09:00,73.2,41.6,29.65,SE,135,9.2,10.1,32,0.00,,---,0.00,VWS V14.00,2015-04-24 22:09:00,
2015-04-24 15:14:00,72.9,41.3,29.65,SE,135,9.8,9.8,32,0.00,,---,0.00,VWS V14.00,2015-04-24 22:14:00,
2015-04-24 15:19:00,72.9,41.3,29.65,SE,135,10.3,10.3,32,0.00,,---,0.00,VWS V14.00,2015-04-24 22:19:00,
2015-04-24 15:24:00,73.4,41.8,29.65,South,180,6.5,10.5,32,0.00,,---,0.00,VWS V14.00,2015-04-24 22:24:00,
2015-04-24 15:29:00,73.4,41.8,29.62,SE,135,6.0,7.6,32,0.00,,---,0.00,VWS V14.00,2015-04-24 22:29:00,
2015-04-24 15:34:00,73.0,41.5,29.62,ESE,112,4.9,7.8,32,0.00,,---,0.00,VWS V14.00,2015-04-24 22:34:00,
2015-04-24 15:39:00,73.4,41.0,29.62,SE,135,5.4,8.7,31,0.00,,---,0.00,VWS V14.00,2015-04-24 22:39:00,
2015-04-24 15:44:00,73.0,40.6,29.62,SE,135,7.4,7.4,31,0.00,,---,0.00,VWS V14.00,2015-04-24 22:44:00,
2015-04-24 15:49:00,72.3,40.0,29.62,ENE,68,7.2,12.1,31,0.00,,---,0.00,VWS V14.00,2015-04-24 22:49:00,
2015-04-24 15:54:00,72.0,39.7,29.62,SE,135,7.2,7.2,31,0.00,,---,0.00,VWS V14.00,2015-04-24 22:54:00,
2015-04-24 15:59:00,72.1,40.7,29.65,SE,135,3.1,3.6,32,0.00,,---,0.00,VWS V14.00,2015-04-24 22:59:00,
2015-04-24 16:04:00,72.0,41.3,29.65,ESE,112,5.4,6.5,33,0.00,,---,0.00,VWS V14.00,2015-04-24 23:04:00,
2015-04-24 16:09:00,71.6,40.2,29.65,SE,135,6.9,6.9,32,0.00,,---,0.00,VWS V14.00,2015-04-24 23:09:00,
2015-04-24 16:14:00,71.6,40.2,29.62,SE,135,3.8,7.4,32,0.00,,---,0.00,VWS V14.00,2015-04-24 23:14:00,
2015-04-24 16:19:00,71.8,40.4,29.62,SE,135,8.5,9.8,32,0.00,,---,0.00,VWS V14.00,2015-04-24 23:19:00,
2015-04-24 16:24:00,72.0,40.5,29.62,SE,135,3.1,4.7,32,0.00,,---,0.00,VWS V14.00,2015-04-24 23:24:00,
2015-04-24 16:29:00,72.0,39.7,29.62,ESE,112,4.3,8.5,31,0.00,,---,0.00,VWS V14.00,2015-04-24 23:29:00,
2015-04-24 16:34:00,72.1,40.7,29.62,SE,135,5.8,8.5,32,0.00,,---,0.00,VWS V14.00,2015-04-24 23:34:00,
2015-04-24 16:39:00,72.1,40.7,29.62,SE,135,8.5,8.5,32,0.00,,---,0.00,VWS V14.00,2015-04-24 23:39:00,
2015-04-24 16:45:00,72.1,39.9,29.65,ESE,112,2.9,6.5,31,0.00,,---,0.00,VWS V14.00,2015-04-24 23:45:00,
2015-04-24 16:50:00,72.1,39.0,29.65,SSE,158,9.4,9.4,30,0.00,,---,0.00,VWS V14.00,2015-04-24 23:50:00,
2015-04-24 16:55:00,72.1,39.0,29.65,SE,135,7.6,9.8,30,0.00,,---,0.00,VWS V14.00,2015-04-24 23:55:00,
2015-04-24 17:00:00,72.1,38.2,29.62,East,90,5.8,6.5,29,0.00,,---,0.00,VWS V14.00,2015-04-25 00:00:00,
2015-04-24 17:05:00,72.0,37.1,29.62,East,90,2.9,4.3,28,0.00,,---,0.00,VWS V14.00,2015-04-25 00:05:00,
2015-04-24 17:10:00,72.1,38.2,29.62,East,90,6.5,7.6,29,0.00,,---,0.00,VWS V14.00,2015-04-25 00:10:00,
2015-04-24 17:15:00,72.0,37.1,29.62,ESE,112,6.3,8.7,28,0.00,,---,0.00,VWS V14.00,2015-04-25 00:15:00,
2015-04-24 17:20:00,71.8,36.0,29.62,SE,135,3.1,3.6,27,0.00,,---,0.00,VWS V14.00,2015-04-25 00:20:00,
2015-04-24 17:25:00,71.4,34.8,29.62,SE,135,5.4,5.4,26,0.00,,---,0.00,VWS V14.00,2015-04-25 00:25:00,
2015-04-24 17:30:00,71.2,35.6,29.62,SE,135,3.6,3.6,27,0.00,,---,0.00,VWS V14.00,2015-04-25 00:30:00,
2015-04-24 17:35:00,71.1,35.4,29.62,SE,135,1.1,2.9,27,0.00,,---,0.00,VWS V14.00,2015-04-25 00:35:00,
2015-04-24 17:40:00,70.9,37.1,29.62,SE,135,2.2,2.2,29,0.00,,---,0.00,VWS V14.00,2015-04-25 00:40:00,
2015-04-24 17:45:00,70.9,37.1,29.65,ESE,112,0.0,2.5,29,0.00,,---,0.00,VWS V14.00,2015-04-25 00:45:00,
2015-04-24 17:51:00,70.3,36.6,29.65,SE,135,3.1,3.1,29,0.00,,---,0.00,VWS V14.00,2015-04-25 00:51:00,
2015-04-24 17:56:00,70.3,36.6,29.62,ESE,112,2.2,2.9,29,0.00,,---,0.00,VWS V14.00,2015-04-25 00:56:00,
2015-04-24 18:01:00,70.3,38.3,29.62,ENE,68,2.5,4.0,31,0.00,,---,0.00,VWS V14.00,2015-04-25 01:01:00,
2015-04-24 18:07:00,70.2,39.0,29.62,SE,135,2.5,2.7,32,0.00,,---,0.00,VWS V14.00,2015-04-25 01:07:00,
2015-04-24 18:13:00,70.0,38.8,29.62,SE,135,2.7,4.0,32,0.00,,---,0.00,VWS V14.00,2015-04-25 01:13:00,
2015-04-24 18:19:00,69.8,38.6,29.62,ENE,68,3.6,3.6,32,0.00,,---,0.00,VWS V14.00,2015-04-25 01:19:00,
2015-04-24 18:24:00,69.6,38.5,29.62,East,90,3.6,4.0,32,0.00,,---,0.00,VWS V14.00,2015-04-25 01:24:00,